Time;durP1;ratioP1;P1;durP2;ratioP2;P2;SDS_P1;SDS_P2;PMS_P1;PMS_P2;Temp;Humidity;BMP_temperature;BMP_pressure;BME280_temperature;BME280_humidity;BME280_pressure;Samples;Min_cycle;Max_cycle;Signal;HPM_P1;HPM_P2
2022/10/04 00:02:17;;;;;;;7.25;5.30;;;7.00;99.90;;;;;;5036412;28;20288;-85
2022/10/04 00:04:48;;;;;;;11.07;5.10;;;6.90;99.90;;;;;;5048745;28;20218;-86
2022/10/04 00:07:21;;;;;;;8.93;5.80;;;7.00;99.90;;;;;;5037709;28;20204;-86
2022/10/04 00:09:52;;;;;;;8.05;5.55;;;7.00;99.90;;;;;;5048822;28;20293;-85
2022/10/04 00:12:22;;;;;;;8.80;5.10;;;7.30;99.90;;;;;;5046908;28;20218;-86
2022/10/04 00:14:54;;;;;;;6.43;4.80;;;7.40;99.90;;;;;;5048673;28;20198;-85
2022/10/04 00:17:25;;;;;;;7.85;6.13;;;7.50;99.90;;;;;;5048385;28;20199;-86
2022/10/04 00:19:55;;;;;;;8.73;5.25;;;7.60;99.90;;;;;;5071878;28;20236;-85
2022/10/04 00:22:25;;;;;;;9.27;5.60;;;7.70;99.90;;;;;;5104036;28;20206;-86
2022/10/04 00:25:16;;;;;;;8.43;5.53;;;7.80;99.90;;;;;;5096161;28;20211;-86
2022/10/04 00:28:25;;;;;;;6.60;4.28;;;8.00;99.90;;;;;;5111693;28;20279;-85
2022/10/04 00:31:12;;;;;;;7.90;4.40;;;7.90;99.30;;;;;;5103803;28;20207;-85
2022/10/04 00:33:40;;;;;;;6.15;4.43;;;7.70;99.90;;;;;;5108525;28;20237;-85
2022/10/04 00:36:37;;;;;;;6.78;5.75;;;7.50;99.90;;;;;;5112931;27;20554;-85
2022/10/04 00:39:15;;;;;;;7.03;5.07;;;7.40;99.90;;;;;;5115420;28;20286;-85
2022/10/04 00:41:59;;;;;;;9.15;4.18;;;7.60;99.90;;;;;;5107793;28;20206;-85
2022/10/04 00:44:34;;;;;;;8.93;4.70;;;7.40;99.90;;;;;;5111508;27;20204;-86
2022/10/04 00:47:03;;;;;;;8.88;5.20;;;7.30;99.90;;;;;;5115755;28;20226;-86
2022/10/04 00:49:36;;;;;;;7.03;4.75;;;7.30;99.90;;;;;;5121863;27;20217;-85
2022/10/04 00:52:11;;;;;;;7.03;4.63;;;7.40;99.90;;;;;;5119721;27;20195;-85
2022/10/04 00:54:42;;;;;;;5.65;4.10;;;7.50;99.90;;;;;;5114906;27;20213;-86
2022/10/04 00:57:12;;;;;;;5.78;4.20;;;7.40;99.90;;;;;;5114314;27;20228;-85
2022/10/04 00:59:41;;;;;;;7.28;4.47;;;7.20;99.90;;;;;;5110801;27;20203;-86
2022/10/04 01:02:17;;;;;;;5.72;4.32;;;7.10;99.90;;;;;;5117653;27;20200;-85
2022/10/04 01:04:49;;;;;;;6.53;4.18;;;6.90;99.90;;;;;;5123661;27;20214;-86
2022/10/04 01:07:22;;;;;;;8.53;4.90;;;6.80;99.90;;;;;;5115490;27;20238;-85
2022/10/04 01:09:55;;;;;;;6.50;4.65;;;6.90;99.90;;;;;;5122812;27;20229;-85
2022/10/04 01:12:38;;;;;;;7.70;4.50;;;6.90;99.90;;;;;;5115947;27;20598;-85
2022/10/04 01:15:09;;;;;;;5.53;3.92;;;6.90;99.90;;;;;;5107147;27;20681;-86
2022/10/04 01:17:36;;;;;;;7.13;4.80;;;6.80;99.90;;;;;;5114670;27;20192;-85
2022/10/04 01:20:03;;;;;;;8.37;4.47;;;7.00;99.90;;;;;;5115538;27;20200;-86
2022/10/04 01:22:50;;;;;;;7.63;4.13;;;7.00;99.90;;;;;;5114538;27;20283;-85
2022/10/04 01:25:43;;;;;;;10.10;4.50;;;6.80;99.90;;;;;;5111011;27;20196;-85
2022/10/04 01:28:10;;;;;;;5.03;4.10;;;6.60;99.90;;;;;;5110164;28;20432;-86
2022/10/04 01:30:37;;;;;;;7.80;4.40;;;6.50;99.90;;;;;;5108384;28;20640;-85
2022/10/04 01:33:05;;;;;;;9.77;4.33;;;6.50;99.90;;;;;;5115642;27;20579;-85
2022/10/04 01:35:34;;;;;;;6.57;4.07;;;6.60;99.90;;;;;;5111405;28;20553;-85
2022/10/04 01:38:05;;;;;;;7.38;4.72;;;6.50;99.90;;;;;;5112756;28;20207;-85
2022/10/04 01:40:32;;;;;;;9.03;4.27;;;6.40;99.90;;;;;;5110262;27;20208;-86
2022/10/04 01:43:02;;;;;;;5.50;4.07;;;6.40;99.90;;;;;;5109861;27;20214;-85
2022/10/04 01:45:39;;;;;;;7.87;4.20;;;6.40;99.90;;;;;;5106646;28;20206;-84
2022/10/04 01:48:10;;;;;;;5.40;4.07;;;6.30;99.90;;;;;;5109563;28;20211;-85
2022/10/04 01:50:41;;;;;;;6.27;3.87;;;6.20;99.90;;;;;;5103835;28;20200;-85
2022/10/04 01:53:15;;;;;;;7.05;4.10;;;6.20;99.90;;;;;;5107569;28;20666;-85
2022/10/04 01:55:50;;;;;;;4.90;3.80;;;6.10;99.90;;;;;;5103955;27;20669;-85
2022/10/04 01:58:21;;;;;;;6.37;4.17;;;6.10;99.90;;;;;;5108356;28;20576;-86
2022/10/04 02:00:53;;;;;;;6.80;4.53;;;6.10;99.90;;;;;;5108178;28;20650;-86
2022/10/04 02:03:24;;;;;;;7.30;3.80;;;6.30;99.90;;;;;;5113129;28;20609;-85
2022/10/04 02:05:54;;;;;;;8.83;3.97;;;6.30;99.90;;;;;;5112327;28;20208;-86
2022/10/04 02:08:28;;;;;;;9.33;3.60;;;6.30;99.90;;;;;;5112051;28;20202;-86
2022/10/04 02:10:56;;;;;;;6.13;3.60;;;6.20;99.90;;;;;;5108553;28;20200;-86
2022/10/04 02:13:28;;;;;;;4.03;3.57;;;6.00;99.90;;;;;;5112367;27;20728;-85
2022/10/04 02:15:56;;;;;;;5.90;3.53;;;6.00;99.90;;;;;;5106784;28;20224;-85
2022/10/04 02:18:25;;;;;;;4.47;3.40;;;6.00;99.90;;;;;;5101135;28;20216;-85
2022/10/04 02:20:53;;;;;;;7.70;3.60;;;5.90;99.90;;;;;;5112005;27;20193;-85
2022/10/04 02:23:22;;;;;;;9.43;3.73;;;5.90;99.90;;;;;;5108134;28;20287;-85
2022/10/04 02:25:51;;;;;;;4.10;3.40;;;6.10;99.90;;;;;;5106416;28;20183;-86
2022/10/04 02:28:18;;;;;;;4.67;3.50;;;6.10;99.90;;;;;;5109958;28;20201;-85
2022/10/04 02:33:30;;;;;;;5.87;3.67;;;5.90;99.90;;;;;;5108258;28;20232;-85
2022/10/04 02:35:58;;;;;;;6.93;3.63;;;5.90;99.90;;;;;;5110581;28;20206;-85
2022/10/04 02:38:34;;;;;;;3.90;3.40;;;5.80;99.90;;;;;;5108118;28;20744;-85
2022/10/04 02:41:06;;;;;;;7.87;3.80;;;5.70;99.90;;;;;;5104305;28;20191;-85
2022/10/04 02:43:37;;;;;;;5.33;3.40;;;5.70;99.90;;;;;;5099795;28;20206;-85
2022/10/04 02:46:11;;;;;;;10.23;3.37;;;5.60;99.90;;;;;;5102317;28;20590;-85
2022/10/04 02:48:46;;;;;;;6.90;3.97;;;5.60;99.90;;;;;;5102528;27;20685;-85
2022/10/04 02:51:19;;;;;;;4.57;3.47;;;5.60;99.90;;;;;;5098987;27;20215;-85
2022/10/04 02:54:02;;;;;;;4.83;3.50;;;5.70;99.90;;;;;;5103851;28;20307;-85
2022/10/04 02:56:31;;;;;;;5.07;3.40;;;5.70;99.90;;;;;;5096678;27;20202;-85
2022/10/04 02:59:02;;;;;;;5.10;3.40;;;5.70;99.90;;;;;;5101877;27;20196;-85
2022/10/04 03:01:42;;;;;;;5.00;3.20;;;5.70;99.90;;;;;;5104160;28;20242;-85
2022/10/04 03:04:12;;;;;;;3.77;3.27;;;5.70;99.90;;;;;;5106429;27;20204;-85
2022/10/04 03:06:39;;;;;;;7.23;3.40;;;5.60;99.90;;;;;;5104073;28;20200;-86
2022/10/04 03:09:07;;;;;;;5.40;3.07;;;5.60;99.90;;;;;;5103870;28;20195;-86
2022/10/04 03:11:39;;;;;;;4.30;3.10;;;5.60;99.90;;;;;;5103309;28;20203;-85
2022/10/04 03:14:10;;;;;;;5.47;3.27;;;5.70;99.90;;;;;;5104736;28;20231;-85
2022/10/04 03:16:39;;;;;;;3.80;3.00;;;5.80;99.90;;;;;;5106577;28;20292;-85
2022/10/04 03:19:07;;;;;;;3.47;2.80;;;5.70;99.90;;;;;;5097901;27;20205;-85
2022/10/04 03:21:39;;;;;;;6.10;3.20;;;5.60;99.90;;;;;;5101093;27;21112;-86
2022/10/04 03:24:07;;;;;;;8.07;3.00;;;5.50;99.90;;;;;;5095926;28;20261;-85
2022/10/04 03:26:38;;;;;;;5.63;2.90;;;5.40;99.90;;;;;;5099152;28;20655;-85
2022/10/04 03:29:09;;;;;;;5.43;2.87;;;5.40;99.90;;;;;;5106652;28;20193;-85
2022/10/04 03:31:40;;;;;;;5.47;3.20;;;5.40;99.90;;;;;;5102615;28;20237;-85
2022/10/04 03:34:14;;;;;;;3.43;2.93;;;5.30;99.90;;;;;;5107056;28;20221;-86
2022/10/04 03:36:41;;;;;;;4.87;2.97;;;5.30;99.90;;;;;;5111450;28;20191;-85
2022/10/04 03:39:12;;;;;;;3.77;3.23;;;5.50;99.90;;;;;;5105162;28;20667;-85
2022/10/04 03:41:41;;;;;;;4.23;3.10;;;5.60;99.90;;;;;;5108192;28;20196;-85
2022/10/04 03:44:14;;;;;;;4.97;2.90;;;5.60;99.90;;;;;;5109534;28;20201;-85
2022/10/04 03:46:44;;;;;;;4.27;3.00;;;5.50;99.90;;;;;;5113156;28;20196;-85
2022/10/04 03:49:15;;;;;;;5.67;3.30;;;5.50;99.90;;;;;;5107215;28;20630;-86
2022/10/04 03:51:46;;;;;;;3.73;2.90;;;5.50;99.90;;;;;;5104640;28;20197;-85
2022/10/04 03:54:18;;;;;;;5.77;3.10;;;5.60;99.90;;;;;;5097262;28;20219;-85
2022/10/04 03:56:54;;;;;;;3.83;2.70;;;5.60;99.90;;;;;;5116718;28;20670;-86
2022/10/04 03:59:24;;;;;;;4.43;3.00;;;5.40;99.90;;;;;;5109099;27;20635;-85
2022/10/04 04:02:04;;;;;;;4.73;3.10;;;5.40;99.90;;;;;;5112949;27;20574;-85
2022/10/04 04:04:40;;;;;;;4.93;3.07;;;5.50;99.90;;;;;;5102975;28;20299;-86
2022/10/04 04:07:13;;;;;;;4.53;2.93;;;5.30;99.90;;;;;;5100858;28;20204;-85
2022/10/04 04:09:45;;;;;;;3.10;2.80;;;5.30;99.90;;;;;;5104079;28;20197;-85
2022/10/04 04:12:19;;;;;;;5.40;3.00;;;5.30;99.90;;;;;;5100848;28;20203;-86
2022/10/04 04:14:49;;;;;;;3.30;2.90;;;5.30;99.90;;;;;;5106747;28;20561;-85
2022/10/04 04:17:35;;;;;;;3.27;2.97;;;5.40;99.90;;;;;;5102717;28;20651;-85
2022/10/04 04:20:07;;;;;;;4.47;2.90;;;5.30;99.90;;;;;;5105741;27;20203;-86
2022/10/04 04:22:35;;;;;;;4.23;3.00;;;5.20;99.90;;;;;;5101958;27;20203;-85
2022/10/04 04:25:11;;;;;;;6.43;3.33;;;5.10;99.90;;;;;;5114984;27;20210;-85
2022/10/04 04:27:41;;;;;;;5.23;3.10;;;5.10;99.90;;;;;;5112397;27;20219;-85
2022/10/04 04:30:15;;;;;;;5.97;3.43;;;5.10;99.90;;;;;;5108937;27;20218;-86
2022/10/04 04:33:22;;;;;;;4.53;3.00;;;5.10;99.90;;;;;;5111091;28;20196;-85
2022/10/04 04:35:55;;;;;;;3.77;3.30;;;5.10;99.90;;;;;;5112634;28;20275;-85
2022/10/04 04:39:32;;;;;;;4.70;3.03;;;5.10;99.90;;;;;;5109016;28;20192;-84
2022/10/04 04:41:36;;;;;;;5.53;2.93;;;5.10;99.90;;;;;;5115682;28;20250;-85
2022/10/04 04:44:17;;;;;;;4.57;2.90;;;5.10;99.90;;;;;;5115946;28;20204;-85
2022/10/04 04:47:07;;;;;;;4.93;3.00;;;5.20;99.90;;;;;;5114249;28;20203;-85
2022/10/04 04:49:55;;;;;;;5.17;3.50;;;5.20;99.90;;;;;;5111796;28;20210;-86
2022/10/04 04:52:26;;;;;;;6.07;2.93;;;5.20;99.90;;;;;;5114934;28;20192;-85
2022/10/04 04:55:18;;;;;;;5.37;3.07;;;5.20;99.90;;;;;;5109459;28;20231;-84
2022/10/04 04:58:05;;;;;;;5.53;3.13;;;5.40;99.90;;;;;;5108083;28;20216;-85
2022/10/04 05:00:42;;;;;;;5.53;3.00;;;5.40;99.90;;;;;;5103956;28;20200;-84
2022/10/04 05:03:40;;;;;;;4.83;3.70;;;5.30;99.90;;;;;;5115095;27;20198;-85
2022/10/04 05:06:25;;;;;;;5.30;3.33;;;5.30;99.90;;;;;;5104478;28;20246;-84
2022/10/04 05:09:05;;;;;;;3.27;2.97;;;5.20;99.90;;;;;;5110997;28;20198;-85
2022/10/04 05:12:07;;;;;;;3.77;3.20;;;5.30;99.90;;;;;;5110098;28;20193;-85
2022/10/04 05:14:49;;;;;;;3.80;3.43;;;5.40;99.90;;;;;;5107166;28;20213;-84
2022/10/04 05:17:21;;;;;;;3.70;3.33;;;5.40;99.90;;;;;;5110468;28;20196;-84
2022/10/04 05:20:01;;;;;;;6.10;3.53;;;5.30;99.90;;;;;;5113241;27;20251;-84
2022/10/04 05:22:32;;;;;;;4.60;3.53;;;5.20;99.90;;;;;;5103077;28;20647;-84
2022/10/04 05:25:28;;;;;;;4.83;3.50;;;5.50;99.90;;;;;;5105652;28;20196;-84
2022/10/04 05:28:29;;;;;;;8.13;3.30;;;6.20;99.90;;;;;;5096448;28;20200;-85
2022/10/04 05:31:16;;;;;;;5.70;3.20;;;6.20;99.90;;;;;;5096234;28;20199;-84
2022/10/04 05:33:49;;;;;;;4.20;3.33;;;5.90;99.80;;;;;;5109945;28;20230;-85
2022/10/04 05:36:46;;;;;;;6.20;3.40;;;5.80;99.90;;;;;;5115231;27;20200;-84
2022/10/04 05:39:24;;;;;;;5.80;3.80;;;5.70;99.90;;;;;;5112322;28;20188;-85
2022/10/04 05:42:01;;;;;;;10.33;3.30;;;6.20;99.90;;;;;;5116215;28;20569;-84
2022/10/04 05:44:35;;;;;;;5.67;3.63;;;6.30;99.90;;;;;;5113499;28;20200;-84
2022/10/04 05:47:05;;;;;;;7.23;3.60;;;6.30;99.90;;;;;;5108107;28;20193;-84
2022/10/04 05:49:42;;;;;;;4.50;3.50;;;6.50;99.90;;;;;;5105129;28;20203;-84
2022/10/04 05:52:16;;;;;;;4.13;3.40;;;6.60;99.90;;;;;;5098089;28;20613;-85
2022/10/04 05:54:43;;;;;;;8.30;3.77;;;6.40;99.30;;;;;;5115465;27;20255;-85
2022/10/04 05:57:34;;;;;;;5.30;3.30;;;6.30;99.60;;;;;;5098528;28;20276;-85
2022/10/04 06:00:15;;;;;;;5.17;3.60;;;6.40;99.90;;;;;;5110554;28;20209;-85
2022/10/04 06:03:09;;;;;;;4.40;3.87;;;6.60;99.90;;;;;;5106050;28;20198;-85
2022/10/04 06:05:48;;;;;;;4.83;3.97;;;6.80;99.90;;;;;;5065109;28;20710;-85
2022/10/04 06:08:27;;;;;;;3.97;3.43;;;6.90;99.90;;;;;;5066155;28;20591;-85
2022/10/04 06:11:08;;;;;;;4.00;3.47;;;7.10;99.90;;;;;;5068408;28;20311;-85
2022/10/04 06:14:10;;;;;;;4.70;3.53;;;7.10;99.50;;;;;;5060511;28;20275;-85
2022/10/04 06:16:55;;;;;;;5.93;3.28;;;7.00;99.00;;;;;;5057145;28;20212;-85
2022/10/04 06:19:59;;;;;;;4.95;3.65;;;6.90;99.70;;;;;;5057422;28;20570;-85
2022/10/04 06:22:28;;;;;;;7.10;3.42;;;7.20;99.90;;;;;;5063589;28;20212;-84
2022/10/04 06:25:01;;;;;;;5.03;3.30;;;7.40;99.30;;;;;;5060378;28;20208;-85
2022/10/04 06:27:35;;;;;;;3.53;3.22;;;7.60;99.60;;;;;;5068768;28;20193;-85
2022/10/04 06:30:05;;;;;;;6.18;3.30;;;7.70;99.70;;;;;;5065713;28;20341;-85
2022/10/04 06:33:01;;;;;;;4.88;3.38;;;7.90;99.40;;;;;;5076351;28;20583;-85
2022/10/04 06:35:57;;;;;;;4.28;3.42;;;8.10;99.10;;;;;;5070463;28;20710;-85
2022/10/04 06:38:50;;;;;;;4.80;3.17;;;8.10;98.60;;;;;;5061272;28;20205;-85
2022/10/04 06:41:30;;;;;;;4.20;3.38;;;7.90;98.60;;;;;;5064667;28;20202;-85
2022/10/04 06:44:17;;;;;;;4.15;3.20;;;7.90;99.20;;;;;;5097914;28;20203;-85
2022/10/04 06:46:49;;;;;;;4.82;3.50;;;7.80;99.10;;;;;;5109540;27;20192;-85
2022/10/04 06:49:34;;;;;;;5.43;3.50;;;7.90;99.90;;;;;;5098169;28;20214;-85
2022/10/04 06:52:25;;;;;;;4.15;3.20;;;8.10;99.60;;;;;;5097955;28;20204;-85
2022/10/04 06:55:23;;;;;;;5.03;3.22;;;8.20;99.00;;;;;;5106179;28;20216;-85
2022/10/04 06:58:24;;;;;;;4.60;3.45;;;8.40;99.20;;;;;;5108014;28;20194;-85
2022/10/04 07:00:57;;;;;;;4.13;3.20;;;8.50;98.40;;;;;;5107686;28;20278;-85
2022/10/04 07:03:40;;;;;;;5.32;3.13;;;8.40;98.40;;;;;;5109995;27;20206;-85
2022/10/04 07:06:10;;;;;;;6.35;3.50;;;8.40;99.30;;;;;;5105318;28;20223;-84
2022/10/04 07:08:42;;;;;;;3.95;3.30;;;8.60;99.30;;;;;;5106411;28;20204;-85
2022/10/04 07:11:18;;;;;;;5.95;3.53;;;8.80;98.10;;;;;;5099761;28;20643;-85
2022/10/04 07:13:55;;;;;;;4.07;3.40;;;9.10;98.50;;;;;;5114471;27;20592;-84
2022/10/04 07:16:44;;;;;;;5.32;3.40;;;9.10;97.30;;;;;;5106454;28;20188;-84
2022/10/04 07:19:27;;;;;;;5.38;3.60;;;9.40;97.00;;;;;;5117319;27;20830;-84
2022/10/04 07:22:04;;;;;;;5.25;3.47;;;9.40;97.20;;;;;;5108035;28;20705;-85
2022/10/04 07:24:46;;;;;;;5.65;3.40;;;9.40;97.00;;;;;;5103966;28;20191;-84
2022/10/04 07:27:17;;;;;;;5.20;3.60;;;9.40;97.60;;;;;;5101056;28;20561;-84
2022/10/04 07:29:45;;;;;;;5.13;3.55;;;9.30;97.60;;;;;;5104617;28;20202;-84
2022/10/04 07:32:22;;;;;;;3.90;3.30;;;9.60;97.50;;;;;;5103312;28;20543;-85
2022/10/04 07:34:54;;;;;;;5.80;4.05;;;9.80;97.30;;;;;;5109193;27;20655;-84
2022/10/04 07:37:22;;;;;;;6.15;3.90;;;9.80;96.60;;;;;;5118209;27;20195;-85
2022/10/04 07:39:57;;;;;;;6.75;3.38;;;10.00;95.90;;;;;;5102867;28;20195;-85
2022/10/04 07:42:35;;;;;;;6.93;3.72;;;10.10;95.80;;;;;;5116372;28;20197;-84
2022/10/04 07:45:14;;;;;;;6.32;3.75;;;10.10;96.30;;;;;;5110260;28;20199;-84
2022/10/04 07:47:42;;;;;;;8.80;3.88;;;10.10;95.70;;;;;;5111542;28;20208;-85
2022/10/04 07:50:33;;;;;;;7.20;3.85;;;10.30;96.40;;;;;;5118236;28;20196;-84
2022/10/04 07:53:07;;;;;;;6.32;4.00;;;10.60;96.10;;;;;;5103361;28;20210;-84
2022/10/04 07:55:46;;;;;;;4.40;3.67;;;10.90;95.80;;;;;;5120384;28;20313;-84
2022/10/04 07:58:34;;;;;;;4.78;3.97;;;11.00;95.30;;;;;;5116474;28;20222;-84
2022/10/04 08:01:10;;;;;;;5.43;4.10;;;11.10;94.40;;;;;;5115946;28;20617;-84
2022/10/04 08:03:59;;;;;;;4.95;3.78;;;11.20;94.60;;;;;;5112651;28;20642;-84
2022/10/04 08:06:36;;;;;;;6.97;4.05;;;11.20;95.40;;;;;;5111872;28;20227;-85
2022/10/04 08:09:23;;;;;;;5.25;3.95;;;11.30;95.20;;;;;;5101289;28;20202;-84
2022/10/04 08:12:01;;;;;;;5.20;3.55;;;11.30;94.00;;;;;;5102460;28;20204;-84
2022/10/04 08:14:43;;;;;;;4.78;3.55;;;11.60;94.30;;;;;;5107308;28;20261;-84
2022/10/04 08:17:21;;;;;;;6.10;3.97;;;11.60;94.50;;;;;;5112392;28;20198;-84
2022/10/04 08:20:12;;;;;;;5.45;3.85;;;11.80;93.50;;;;;;5113187;28;20211;-83
2022/10/04 08:22:52;;;;;;;6.43;3.53;;;11.90;93.10;;;;;;5108622;28;20200;-84
2022/10/04 08:25:28;;;;;;;3.92;3.15;;;12.00;93.00;;;;;;5113325;28;20227;-84
2022/10/04 08:31:11;;;;;;;6.47;3.97;;;12.00;92.70;;;;;;5105965;28;20204;-84
2022/10/04 08:34:00;;;;;;;6.25;3.88;;;12.30;93.20;;;;;;5107616;28;20196;-84
2022/10/04 08:36:42;;;;;;;5.82;3.92;;;12.40;93.10;;;;;;5110579;28;20303;-84
2022/10/04 08:39:29;;;;;;;4.10;3.55;;;12.60;91.90;;;;;;5115489;28;20268;-83
2022/10/04 08:42:45;;;;;;;6.82;3.58;;;12.70;92.30;;;;;;5106015;28;20242;-84
2022/10/04 08:45:53;;;;;;;5.18;3.63;;;12.80;91.40;;;;;;5117721;28;20201;-84
2022/10/04 08:48:59;;;;;;;5.22;3.78;;;12.90;91.50;;;;;;5109044;28;20200;-84
2022/10/04 08:51:56;;;;;;;6.03;3.42;;;13.10;91.00;;;;;;5104743;28;20196;-85
2022/10/04 08:55:01;;;;;;;3.70;3.30;;;13.10;91.30;;;;;;5115585;28;20191;-85
2022/10/04 08:58:04;;;;;;;5.55;3.60;;;13.40;91.10;;;;;;5037024;28;20229;-85
2022/10/04 09:00:48;;;;;;;5.38;3.10;;;13.70;90.20;;;;;;5008973;28;20245;-85
2022/10/04 09:04:03;;;;;;;5.55;3.40;;;14.00;90.00;;;;;;4995831;28;20210;-85
2022/10/04 09:06:40;;;;;;;4.15;3.10;;;14.50;84.60;;;;;;5014062;28;20228;-85
2022/10/04 09:09:43;;;;;;;4.07;2.90;;;14.80;81.60;;;;;;5006066;28;20246;-85
2022/10/04 09:12:44;;;;;;;4.55;2.70;;;15.20;78.60;;;;;;5005631;28;20203;-85
2022/10/04 09:15:55;;;;;;;4.25;2.80;;;15.60;73.00;;;;;;5007244;28;20241;-85
2022/10/04 09:18:51;;;;;;;5.72;2.92;;;16.20;62.30;;;;;;4927926;29;20194;-85
2022/10/04 09:21:28;;;;;;;3.33;2.47;;;16.50;62.60;;;;;;4879157;29;20208;-83
2022/10/04 09:24:20;;;;;;;5.18;2.60;;;16.90;53.10;;;;;;4874176;29;20203;-83
2022/10/04 09:27:03;;;;;;;3.92;2.38;;;17.10;52.20;;;;;;4882699;29;20204;-82
2022/10/04 09:29:50;;;;;;;6.00;2.67;;;17.40;47.00;;;;;;4873393;29;20200;-86
2022/10/04 09:32:47;;;;;;;3.63;2.47;;;17.10;45.90;;;;;;4869172;29;20242;-86
2022/10/04 09:35:48;;;;;;;2.95;2.42;;;16.50;50.80;;;;;;4885956;29;20294;-85
2022/10/04 09:38:55;;;;;;;4.93;2.88;;;16.50;50.00;;;;;;4950306;28;20197;-85
2022/10/04 09:41:54;;;;;;;4.88;2.08;;;16.30;49.60;;;;;;4962998;28;20192;-86
2022/10/04 09:44:55;;;;;;;4.68;2.80;;;16.40;52.60;;;;;;4897097;29;20480;-86
2022/10/04 09:47:36;;;;;;;4.13;2.58;;;17.00;47.60;;;;;;4892645;29;20195;-85
2022/10/04 09:50:38;;;;;;;4.45;4.05;;;17.00;46.30;;;;;;4928715;28;20204;-85
2022/10/04 09:53:25;;;;;;;4.03;3.53;;;17.00;45.30;;;;;;4941391;28;20205;-86
2022/10/04 09:56:19;;;;;;;4.65;2.70;;;17.10;46.50;;;;;;4947726;28;20231;-86
2022/10/04 09:59:02;;;;;;;4.03;2.47;;;17.70;43.30;;;;;;5008786;28;20228;-82
2022/10/04 10:01:39;;;;;;;6.80;2.53;;;17.80;43.00;;;;;;5035868;28;20209;-82
2022/10/04 10:04:29;;;;;;;3.00;2.17;;;17.90;42.70;;;;;;5034863;28;20209;-82
2022/10/04 10:07:20;;;;;;;4.20;2.53;;;17.70;45.70;;;;;;5033758;28;20317;-82
2022/10/04 10:13:41;;;;;;;4.15;2.53;;;17.30;44.30;;;;;;4970706;28;20211;-82
2022/10/04 10:16:28;;;;;;;4.70;2.38;;;17.30;42.90;;;;;;4979766;28;20215;-82
2022/10/04 10:19:16;;;;;;;6.45;2.38;;;17.20;45.00;;;;;;4987704;28;20291;-82
2022/10/04 10:21:59;;;;;;;4.38;2.05;;;16.80;48.00;;;;;;5025049;28;20296;-82
2022/10/04 10:24:44;;;;;;;5.40;2.50;;;16.80;45.30;;;;;;5033510;28;20674;-84
2022/10/04 10:27:27;;;;;;;2.58;1.98;;;16.50;48.30;;;;;;5021911;28;20225;-85
2022/10/04 10:30:29;;;;;;;4.97;2.42;;;16.10;52.40;;;;;;5028240;28;20195;-86
2022/10/04 10:33:23;;;;;;;4.28;2.50;;;15.90;58.50;;;;;;5013585;28;20202;-89
2022/10/04 10:36:18;;;;;;;4.70;2.58;;;16.20;56.20;;;;;;5027246;28;20403;-86
2022/10/04 10:38:57;;;;;;;4.68;2.20;;;16.20;53.10;;;;;;4966318;28;20676;-86
2022/10/04 10:41:56;;;;;;;2.65;2.15;;;16.50;52.70;;;;;;4970080;28;20203;-86
2022/10/04 10:44:36;;;;;;;2.75;2.22;;;16.90;49.70;;;;;;4964869;28;20203;-86
2022/10/04 10:47:21;;;;;;;2.83;2.30;;;16.80;49.70;;;;;;5029125;28;20211;-87
2022/10/04 10:50:06;;;;;;;3.28;2.42;;;16.60;52.80;;;;;;5066549;28;20239;-87
2022/10/04 10:53:19;;;;;;;2.92;2.30;;;16.80;55.40;;;;;;5069457;28;20194;-88
2022/10/04 10:56:26;;;;;;;3.50;2.30;;;16.70;55.60;;;;;;5032378;28;20232;-87
2022/10/04 10:59:32;;;;;;;3.53;2.40;;;16.50;60.00;;;;;;5067665;28;20204;-88
2022/10/04 11:02:23;;;;;;;5.35;2.22;;;17.00;49.20;;;;;;5070469;28;20296;-87
2022/10/04 11:05:23;;;;;;;3.70;2.17;;;17.20;52.50;;;;;;5064157;28;20233;-87
2022/10/04 11:07:54;;;;;;;3.47;2.00;;;17.10;47.00;;;;;;5064536;28;20197;-87
2022/10/04 11:10:47;;;;;;;5.00;2.20;;;17.40;44.40;;;;;;5061841;28;20252;-87
2022/10/04 11:14:01;;;;;;;4.28;2.45;;;17.40;40.90;;;;;;5066090;28;20201;-87
2022/10/04 11:17:02;;;;;;;3.58;2.40;;;17.10;42.10;;;;;;5088865;28;20713;-86
2022/10/04 11:20:10;;;;;;;2.72;2.00;;;16.90;44.70;;;;;;5044712;28;20204;-87
2022/10/04 11:23:11;;;;;;;4.30;2.30;;;16.90;53.10;;;;;;5041286;28;20209;-86
2022/10/04 11:26:23;;;;;;;3.00;2.20;;;17.10;46.90;;;;;;5046648;28;20668;-86
2022/10/04 11:29:09;;;;;;;3.65;2.05;;;17.30;45.40;;;;;;5042206;28;20795;-86
2022/10/04 11:32:22;;;;;;;4.75;2.20;;;17.30;43.90;;;;;;5043911;28;20201;-85
2022/10/04 11:35:33;;;;;;;2.20;2.00;;;17.30;41.90;;;;;;5039061;28;20949;-86
2022/10/04 11:38:13;;;;;;;2.22;2.00;;;17.10;41.50;;;;;;5045460;28;20218;-86
2022/10/04 11:41:10;;;;;;;3.88;2.60;;;17.10;39.80;;;;;;5050334;28;20200;-86
2022/10/04 11:44:17;;;;;;;3.40;1.85;;;17.00;39.50;;;;;;5051084;28;20198;-87
2022/10/04 11:46:53;;;;;;;3.63;2.10;;;16.70;37.90;;;;;;5048463;28;20209;-87
2022/10/04 11:49:39;;;;;;;2.38;1.80;;;16.50;41.40;;;;;;5044234;28;20346;-86
2022/10/04 11:52:50;;;;;;;3.15;1.88;;;16.60;42.20;;;;;;5045896;28;20200;-87
2022/10/04 11:55:56;;;;;;;4.30;2.20;;;16.50;46.10;;;;;;5038786;28;20574;-86
2022/10/04 11:58:35;;;;;;;3.65;1.92;;;16.50;47.70;;;;;;5110859;28;20198;-86
2022/10/04 12:01:29;;;;;;;3.05;2.30;;;16.50;54.90;;;;;;5107512;28;20202;-86
2022/10/04 12:04:21;;;;;;;4.47;2.10;;;16.30;45.10;;;;;;5102265;28;20199;-86
2022/10/04 12:07:22;;;;;;;3.10;1.98;;;16.30;47.40;;;;;;5108440;28;20631;-86
2022/10/04 12:10:01;;;;;;;4.10;2.20;;;16.40;52.70;;;;;;5098373;28;20196;-86
2022/10/04 12:12:58;;;;;;;4.35;2.42;;;16.60;50.00;;;;;;5104974;28;20194;-86
2022/10/04 12:15:58;;;;;;;3.40;2.42;;;16.60;50.00;;;;;;5097688;28;20197;-86
2022/10/04 12:19:05;;;;;;;5.85;2.65;;;16.60;51.60;;;;;;5105406;28;20196;-87
2022/10/04 12:22:14;;;;;;;4.45;2.40;;;16.70;53.10;;;;;;5103045;28;20640;-86
2022/10/04 12:25:31;;;;;;;3.75;2.40;;;17.00;48.00;;;;;;5048088;28;20208;-87
2022/10/04 12:28:20;;;;;;;4.05;2.40;;;17.30;45.10;;;;;;4939152;28;20587;-86
2022/10/04 12:31:10;;;;;;;3.20;2.10;;;17.40;42.80;;;;;;4943836;28;20232;-87
2022/10/04 12:33:47;;;;;;;4.78;2.63;;;17.60;41.60;;;;;;4942913;28;20252;-86
2022/10/04 12:36:34;;;;;;;5.50;2.40;;;17.50;42.20;;;;;;4948336;28;20217;-86
2022/10/04 12:39:30;;;;;;;4.75;2.35;;;17.50;43.30;;;;;;4949927;28;20205;-86
2022/10/04 12:42:13;;;;;;;5.90;2.20;;;17.40;41.90;;;;;;4950273;28;20201;-86
2022/10/04 12:44:54;;;;;;;3.97;2.28;;;17.20;46.00;;;;;;4951882;28;20819;-86
2022/10/04 12:47:48;;;;;;;3.97;2.17;;;17.30;41.30;;;;;;4951278;28;22638;-86
2022/10/04 12:50:27;;;;;;;6.20;2.28;;;17.20;42.60;;;;;;4952533;28;20212;-86
2022/10/04 12:53:14;;;;;;;4.28;2.35;;;17.20;46.30;;;;;;4952018;28;20227;-86
2022/10/04 12:56:06;;;;;;;4.80;2.28;;;17.10;45.40;;;;;;4955647;28;20268;-86
2022/10/04 12:58:50;;;;;;;4.47;2.40;;;17.20;42.30;;;;;;5003915;28;20204;-86
2022/10/04 13:01:31;;;;;;;2.95;2.20;;;17.20;40.50;;;;;;5072241;28;20196;-86
2022/10/04 13:04:12;;;;;;;4.38;2.30;;;16.90;42.50;;;;;;5111435;28;20198;-85
2022/10/04 13:06:54;;;;;;;3.80;2.40;;;16.80;43.00;;;;;;5109769;27;20199;-85
2022/10/04 13:09:34;;;;;;;3.38;2.33;;;16.70;44.50;;;;;;5114528;27;20271;-86
2022/10/04 13:12:21;;;;;;;4.70;2.45;;;16.60;50.10;;;;;;5106900;27;20188;-85
2022/10/04 13:15:21;;;;;;;4.85;2.40;;;16.40;52.60;;;;;;5109791;28;20271;-85
2022/10/04 13:18:05;;;;;;;5.72;2.40;;;16.50;52.70;;;;;;5110058;28;20208;-86
2022/10/04 13:20:46;;;;;;;2.83;2.10;;;16.40;52.60;;;;;;5109500;27;20219;-86
2022/10/04 13:23:40;;;;;;;4.93;2.17;;;16.50;48.80;;;;;;5114894;27;20204;-85
2022/10/04 13:26:27;;;;;;;3.03;2.30;;;16.50;48.70;;;;;;5107562;28;20211;-86
2022/10/04 13:29:14;;;;;;;4.15;2.47;;;16.50;52.70;;;;;;5114414;28;20196;-87
2022/10/04 13:31:48;;;;;;;3.25;2.05;;;16.40;52.70;;;;;;5114068;27;20225;-86
2022/10/04 13:34:25;;;;;;;3.33;2.10;;;16.40;50.40;;;;;;5117789;28;20195;-86
2022/10/04 13:37:19;;;;;;;4.97;2.40;;;16.40;51.80;;;;;;5124022;27;20231;-86
2022/10/04 13:40:04;;;;;;;5.45;2.30;;;16.50;51.70;;;;;;5126327;27;20258;-85
2022/10/04 13:42:59;;;;;;;5.05;2.17;;;16.50;48.40;;;;;;5108278;28;20196;-86
2022/10/04 13:45:56;;;;;;;5.53;2.20;;;16.50;48.20;;;;;;5108593;28;20224;-85
2022/10/04 13:48:37;;;;;;;4.88;2.40;;;16.50;52.70;;;;;;5113973;27;20214;-86
2022/10/04 13:51:32;;;;;;;6.57;3.28;;;16.60;49.00;;;;;;5104007;27;20203;-86
2022/10/04 13:57:15;;;;;;;5.57;2.28;;;16.60;49.70;;;;;;5100430;28;20243;-89
2022/10/04 14:00:04;;;;;;;7.35;2.20;;;16.50;49.90;;;;;;5115526;27;20200;-89
2022/10/04 14:02:49;;;;;;;4.25;2.50;;;16.50;49.30;;;;;;5102669;27;20671;-86
2022/10/04 14:05:48;;;;;;;4.55;2.05;;;16.50;49.60;;;;;;5107042;27;20698;-86
2022/10/04 14:08:42;;;;;;;3.95;2.28;;;16.60;49.50;;;;;;5115721;27;20202;-86
2022/10/04 14:11:41;;;;;;;2.92;2.10;;;16.80;46.10;;;;;;5103271;28;20258;-86
2022/10/04 14:14:26;;;;;;;4.28;2.10;;;16.60;46.10;;;;;;5105960;28;20196;-86
2022/10/04 14:17:25;;;;;;;5.55;2.10;;;16.80;44.20;;;;;;5053152;28;20236;-86
2022/10/04 14:20:34;;;;;;;3.95;2.00;;;16.60;46.80;;;;;;5050089;28;20212;-86
2022/10/04 14:23:47;;;;;;;3.25;2.00;;;16.70;43.60;;;;;;4982717;28;20206;-86
2022/10/04 14:26:46;;;;;;;2.80;2.00;;;16.60;45.00;;;;;;4989779;28;20207;-88
2022/10/04 14:29:49;;;;;;;3.25;2.20;;;16.60;42.70;;;;;;4915049;29;20254;-86